sensor_id;sensor_type;location;lat;lon;timestamp;P1;durP1;ratioP1;P2;durP2;ratioP2
68923;SDS011;55961;52.156;20.942;2023-06-22T00:01:17;32.50;;;25.80;;
68923;SDS011;55961;52.156;20.942;2023-06-22T00:03:43;32.38;;;26.02;;
68923;SDS011;55961;52.156;20.942;2023-06-22T00:06:09;30.48;;;26.40;;
68923;SDS011;55961;52.156;20.942;2023-06-22T00:08:35;31.70;;;25.90;;
68923;SDS011;55961;52.156;20.942;2023-06-22T00:11:01;29.75;;;25.83;;
68923;SDS011;55961;52.156;20.942;2023-06-22T00:13:27;30.42;;;25.98;;
68923;SDS011;55961;52.156;20.942;2023-06-22T00:15:53;29.87;;;24.63;;
68923;SDS011;55961;52.156;20.942;2023-06-22T00:18:19;31.40;;;25.50;;
68923;SDS011;55961;52.156;20.942;2023-06-22T00:20:45;30.35;;;24.25;;
68923;SDS011;55961;52.156;20.942;2023-06-22T00:23:11;32.60;;;25.63;;
68923;SDS011;55961;52.156;20.942;2023-06-22T00:25:42;31.77;;;25.97;;
68923;SDS011;55961;52.156;20.942;2023-06-22T00:28:08;30.27;;;26.33;;
68923;SDS011;55961;52.156;20.942;2023-06-22T00:30:35;29.33;;;25.55;;
68923;SDS011;55961;52.156;20.942;2023-06-22T00:33:01;32.90;;;26.50;;
68923;SDS011;55961;52.156;20.942;2023-06-22T00:35:27;33.35;;;26.23;;
68923;SDS011;55961;52.156;20.942;2023-06-22T00:37:56;30.17;;;25.13;;
68923;SDS011;55961;52.156;20.942;2023-06-22T00:40:26;30.40;;;25.90;;
68923;SDS011;55961;52.156;20.942;2023-06-22T00:42:53;30.70;;;26.08;;
68923;SDS011;55961;52.156;20.942;2023-06-22T00:45:20;29.70;;;25.83;;
68923;SDS011;55961;52.156;20.942;2023-06-22T00:47:48;37.40;;;26.42;;
68923;SDS011;55961;52.156;20.942;2023-06-22T00:50:19;32.73;;;26.00;;
68923;SDS011;55961;52.156;20.942;2023-06-22T00:52:57;31.88;;;25.77;;
68923;SDS011;55961;52.156;20.942;2023-06-22T00:55:25;30.60;;;25.33;;
68923;SDS011;55961;52.156;20.942;2023-06-22T00:57:52;31.38;;;24.35;;
68923;SDS011;55961;52.156;20.942;2023-06-22T01:00:22;32.25;;;25.45;;
68923;SDS011;55961;52.156;20.942;2023-06-22T01:02:50;31.90;;;25.57;;
68923;SDS011;55961;52.156;20.942;2023-06-22T01:05:18;32.05;;;25.88;;
68923;SDS011;55961;52.156;20.942;2023-06-22T01:07:57;30.65;;;25.77;;
68923;SDS011;55961;52.156;20.942;2023-06-22T01:10:51;29.05;;;24.73;;
68923;SDS011;55961;52.156;20.942;2023-06-22T01:13:25;29.88;;;24.75;;
68923;SDS011;55961;52.156;20.942;2023-06-22T01:16:12;28.40;;;23.67;;
68923;SDS011;55961;52.156;20.942;2023-06-22T01:18:45;29.08;;;23.48;;
68923;SDS011;55961;52.156;20.942;2023-06-22T01:21:16;28.63;;;23.80;;
68923;SDS011;55961;52.156;20.942;2023-06-22T01:23:53;30.63;;;24.88;;
68923;SDS011;55961;52.156;20.942;2023-06-22T01:26:28;28.42;;;24.13;;
68923;SDS011;55961;52.156;20.942;2023-06-22T01:29:05;31.43;;;24.13;;
68923;SDS011;55961;52.156;20.942;2023-06-22T01:31:33;29.92;;;23.05;;
68923;SDS011;55961;52.156;20.942;2023-06-22T01:34:01;29.00;;;24.33;;
68923;SDS011;55961;52.156;20.942;2023-06-22T01:36:30;29.42;;;24.40;;
68923;SDS011;55961;52.156;20.942;2023-06-22T01:38:57;31.85;;;24.27;;
68923;SDS011;55961;52.156;20.942;2023-06-22T01:41:27;28.43;;;23.90;;
68923;SDS011;55961;52.156;20.942;2023-06-22T01:43:55;29.52;;;25.00;;
68923;SDS011;55961;52.156;20.942;2023-06-22T01:46:22;31.23;;;24.73;;
68923;SDS011;55961;52.156;20.942;2023-06-22T01:48:48;29.17;;;24.48;;
68923;SDS011;55961;52.156;20.942;2023-06-22T01:51:15;29.52;;;23.13;;
68923;SDS011;55961;52.156;20.942;2023-06-22T01:53:42;28.87;;;23.80;;
68923;SDS011;55961;52.156;20.942;2023-06-22T01:56:08;33.53;;;24.40;;
68923;SDS011;55961;52.156;20.942;2023-06-22T01:58:34;30.15;;;26.02;;
68923;SDS011;55961;52.156;20.942;2023-06-22T02:01:09;31.85;;;27.17;;
68923;SDS011;55961;52.156;20.942;2023-06-22T02:03:47;37.63;;;29.48;;
68923;SDS011;55961;52.156;20.942;2023-06-22T02:06:20;38.47;;;29.47;;
68923;SDS011;55961;52.156;20.942;2023-06-22T02:08:51;38.05;;;29.27;;
68923;SDS011;55961;52.156;20.942;2023-06-22T02:11:22;38.25;;;30.48;;
68923;SDS011;55961;52.156;20.942;2023-06-22T02:13:50;36.40;;;29.95;;
68923;SDS011;55961;52.156;20.942;2023-06-22T02:16:17;41.58;;;31.20;;
68923;SDS011;55961;52.156;20.942;2023-06-22T02:18:47;39.27;;;31.57;;
68923;SDS011;55961;52.156;20.942;2023-06-22T02:21:19;40.30;;;30.63;;
68923;SDS011;55961;52.156;20.942;2023-06-22T02:23:46;40.08;;;30.83;;
68923;SDS011;55961;52.156;20.942;2023-06-22T02:26:12;43.53;;;33.88;;
68923;SDS011;55961;52.156;20.942;2023-06-22T02:28:39;47.28;;;34.15;;
68923;SDS011;55961;52.156;20.942;2023-06-22T02:31:05;44.80;;;33.97;;
68923;SDS011;55961;52.156;20.942;2023-06-22T02:33:30;50.53;;;34.45;;
68923;SDS011;55961;52.156;20.942;2023-06-22T02:35:57;49.60;;;34.95;;
68923;SDS011;55961;52.156;20.942;2023-06-22T02:38:23;53.33;;;36.20;;
68923;SDS011;55961;52.156;20.942;2023-06-22T02:40:50;51.28;;;35.80;;
68923;SDS011;55961;52.156;20.942;2023-06-22T02:43:15;45.08;;;33.92;;
68923;SDS011;55961;52.156;20.942;2023-06-22T02:45:42;54.00;;;36.38;;
68923;SDS011;55961;52.156;20.942;2023-06-22T02:48:08;51.63;;;35.63;;
68923;SDS011;55961;52.156;20.942;2023-06-22T02:50:34;49.53;;;35.65;;
68923;SDS011;55961;52.156;20.942;2023-06-22T02:52:59;53.75;;;37.10;;
68923;SDS011;55961;52.156;20.942;2023-06-22T02:55:25;56.85;;;38.67;;
68923;SDS011;55961;52.156;20.942;2023-06-22T02:57:51;61.50;;;40.77;;
68923;SDS011;55961;52.156;20.942;2023-06-22T03:00:18;63.55;;;39.72;;
68923;SDS011;55961;52.156;20.942;2023-06-22T03:02:48;63.60;;;41.60;;
68923;SDS011;55961;52.156;20.942;2023-06-22T03:05:15;59.03;;;40.38;;
68923;SDS011;55961;52.156;20.942;2023-06-22T03:07:45;59.07;;;39.77;;
68923;SDS011;55961;52.156;20.942;2023-06-22T03:10:12;60.70;;;43.00;;
68923;SDS011;55961;52.156;20.942;2023-06-22T03:12:39;59.75;;;41.35;;
68923;SDS011;55961;52.156;20.942;2023-06-22T03:15:07;61.17;;;40.05;;
68923;SDS011;55961;52.156;20.942;2023-06-22T03:17:34;62.65;;;42.05;;
68923;SDS011;55961;52.156;20.942;2023-06-22T03:20:01;57.90;;;40.50;;
68923;SDS011;55961;52.156;20.942;2023-06-22T03:22:37;58.42;;;40.85;;
68923;SDS011;55961;52.156;20.942;2023-06-22T03:25:05;56.67;;;37.58;;
68923;SDS011;55961;52.156;20.942;2023-06-22T03:27:38;60.38;;;41.47;;
68923;SDS011;55961;52.156;20.942;2023-06-22T03:30:06;59.45;;;39.08;;
68923;SDS011;55961;52.156;20.942;2023-06-22T03:32:33;59.00;;;38.77;;
68923;SDS011;55961;52.156;20.942;2023-06-22T03:34:59;58.53;;;38.97;;
68923;SDS011;55961;52.156;20.942;2023-06-22T03:37:27;56.97;;;39.58;;
68923;SDS011;55961;52.156;20.942;2023-06-22T03:39:53;54.88;;;39.00;;
68923;SDS011;55961;52.156;20.942;2023-06-22T03:42:19;55.97;;;40.03;;
68923;SDS011;55961;52.156;20.942;2023-06-22T03:44:46;56.93;;;39.00;;
68923;SDS011;55961;52.156;20.942;2023-06-22T03:47:12;55.78;;;37.42;;
68923;SDS011;55961;52.156;20.942;2023-06-22T03:49:38;53.75;;;37.85;;
68923;SDS011;55961;52.156;20.942;2023-06-22T03:52:04;53.28;;;36.85;;
68923;SDS011;55961;52.156;20.942;2023-06-22T03:54:31;50.93;;;36.60;;
68923;SDS011;55961;52.156;20.942;2023-06-22T03:56:57;53.65;;;37.35;;
68923;SDS011;55961;52.156;20.942;2023-06-22T03:59:23;54.10;;;37.28;;
68923;SDS011;55961;52.156;20.942;2023-06-22T04:01:50;50.50;;;34.50;;
68923;SDS011;55961;52.156;20.942;2023-06-22T04:04:19;49.90;;;36.90;;
68923;SDS011;55961;52.156;20.942;2023-06-22T04:06:45;48.97;;;34.80;;
68923;SDS011;55961;52.156;20.942;2023-06-22T04:09:11;50.08;;;34.97;;
68923;SDS011;55961;52.156;20.942;2023-06-22T04:11:37;46.40;;;33.80;;
68923;SDS011;55961;52.156;20.942;2023-06-22T04:14:03;46.72;;;33.33;;
68923;SDS011;55961;52.156;20.942;2023-06-22T04:16:29;47.77;;;34.27;;
68923;SDS011;55961;52.156;20.942;2023-06-22T04:18:55;44.90;;;33.53;;
68923;SDS011;55961;52.156;20.942;2023-06-22T04:21:21;45.42;;;33.17;;
68923;SDS011;55961;52.156;20.942;2023-06-22T04:23:47;45.30;;;32.70;;
68923;SDS011;55961;52.156;20.942;2023-06-22T04:26:13;44.00;;;32.27;;
68923;SDS011;55961;52.156;20.942;2023-06-22T04:28:40;46.45;;;33.47;;
68923;SDS011;55961;52.156;20.942;2023-06-22T04:31:06;42.78;;;31.27;;
68923;SDS011;55961;52.156;20.942;2023-06-22T04:33:32;40.83;;;30.90;;
68923;SDS011;55961;52.156;20.942;2023-06-22T04:35:58;44.42;;;32.33;;
68923;SDS011;55961;52.156;20.942;2023-06-22T04:38:29;42.20;;;30.50;;
68923;SDS011;55961;52.156;20.942;2023-06-22T04:40:58;43.17;;;32.13;;
68923;SDS011;55961;52.156;20.942;2023-06-22T04:43:26;43.70;;;30.15;;
68923;SDS011;55961;52.156;20.942;2023-06-22T04:45:56;43.03;;;31.20;;
68923;SDS011;55961;52.156;20.942;2023-06-22T04:48:31;40.75;;;30.73;;
68923;SDS011;55961;52.156;20.942;2023-06-22T04:51:01;43.07;;;30.73;;
68923;SDS011;55961;52.156;20.942;2023-06-22T04:53:30;42.65;;;30.05;;
68923;SDS011;55961;52.156;20.942;2023-06-22T04:55:56;39.80;;;30.05;;
68923;SDS011;55961;52.156;20.942;2023-06-22T04:58:23;37.33;;;28.98;;
68923;SDS011;55961;52.156;20.942;2023-06-22T05:00:52;41.00;;;29.85;;
68923;SDS011;55961;52.156;20.942;2023-06-22T05:03:18;40.20;;;29.60;;
68923;SDS011;55961;52.156;20.942;2023-06-22T05:05:44;36.63;;;28.38;;
68923;SDS011;55961;52.156;20.942;2023-06-22T05:08:10;39.60;;;28.35;;
68923;SDS011;55961;52.156;20.942;2023-06-22T05:10:37;37.20;;;27.95;;
68923;SDS011;55961;52.156;20.942;2023-06-22T05:13:03;36.83;;;27.83;;
68923;SDS011;55961;52.156;20.942;2023-06-22T05:15:29;38.35;;;27.92;;
68923;SDS011;55961;52.156;20.942;2023-06-22T05:17:58;36.35;;;26.75;;
68923;SDS011;55961;52.156;20.942;2023-06-22T05:20:24;37.85;;;27.45;;
68923;SDS011;55961;52.156;20.942;2023-06-22T05:22:51;39.13;;;27.57;;
68923;SDS011;55961;52.156;20.942;2023-06-22T05:25:16;32.50;;;25.48;;
68923;SDS011;55961;52.156;20.942;2023-06-22T05:27:42;33.05;;;25.33;;
68923;SDS011;55961;52.156;20.942;2023-06-22T05:30:09;33.58;;;25.27;;
68923;SDS011;55961;52.156;20.942;2023-06-22T05:32:37;35.73;;;25.70;;
68923;SDS011;55961;52.156;20.942;2023-06-22T05:35:03;34.25;;;24.70;;
68923;SDS011;55961;52.156;20.942;2023-06-22T05:37:29;31.10;;;23.70;;
68923;SDS011;55961;52.156;20.942;2023-06-22T05:39:55;31.63;;;24.93;;
68923;SDS011;55961;52.156;20.942;2023-06-22T05:42:22;33.70;;;23.85;;
68923;SDS011;55961;52.156;20.942;2023-06-22T05:44:50;29.20;;;23.13;;
68923;SDS011;55961;52.156;20.942;2023-06-22T05:47:18;32.15;;;23.42;;
68923;SDS011;55961;52.156;20.942;2023-06-22T05:49:44;30.20;;;23.27;;
68923;SDS011;55961;52.156;20.942;2023-06-22T05:52:10;32.40;;;23.90;;
68923;SDS011;55961;52.156;20.942;2023-06-22T05:54:36;32.58;;;23.40;;
68923;SDS011;55961;52.156;20.942;2023-06-22T05:57:04;32.85;;;23.67;;
68923;SDS011;55961;52.156;20.942;2023-06-22T05:59:30;31.30;;;22.00;;
68923;SDS011;55961;52.156;20.942;2023-06-22T06:01:56;30.67;;;22.13;;
68923;SDS011;55961;52.156;20.942;2023-06-22T06:04:22;29.23;;;22.77;;
68923;SDS011;55961;52.156;20.942;2023-06-22T06:06:48;31.55;;;23.25;;
68923;SDS011;55961;52.156;20.942;2023-06-22T06:09:14;32.30;;;22.87;;
68923;SDS011;55961;52.156;20.942;2023-06-22T06:11:40;30.75;;;23.20;;
68923;SDS011;55961;52.156;20.942;2023-06-22T06:14:06;29.48;;;20.98;;
68923;SDS011;55961;52.156;20.942;2023-06-22T06:16:32;23.83;;;18.37;;
68923;SDS011;55961;52.156;20.942;2023-06-22T06:18:58;26.60;;;20.58;;
68923;SDS011;55961;52.156;20.942;2023-06-22T06:21:24;29.33;;;21.98;;
68923;SDS011;55961;52.156;20.942;2023-06-22T06:23:50;31.53;;;21.03;;
68923;SDS011;55961;52.156;20.942;2023-06-22T06:26:16;27.20;;;20.55;;
68923;SDS011;55961;52.156;20.942;2023-06-22T06:28:42;26.17;;;20.73;;
68923;SDS011;55961;52.156;20.942;2023-06-22T06:31:09;26.27;;;20.27;;
68923;SDS011;55961;52.156;20.942;2023-06-22T06:33:35;26.15;;;19.88;;
68923;SDS011;55961;52.156;20.942;2023-06-22T06:36:02;26.80;;;20.53;;
68923;SDS011;55961;52.156;20.942;2023-06-22T06:38:31;27.60;;;20.83;;
68923;SDS011;55961;52.156;20.942;2023-06-22T06:40:58;24.48;;;19.13;;
68923;SDS011;55961;52.156;20.942;2023-06-22T06:43:24;29.70;;;19.60;;
68923;SDS011;55961;52.156;20.942;2023-06-22T06:45:50;24.10;;;18.73;;
68923;SDS011;55961;52.156;20.942;2023-06-22T06:48:16;26.00;;;19.07;;
68923;SDS011;55961;52.156;20.942;2023-06-22T06:50:43;22.60;;;17.90;;
68923;SDS011;55961;52.156;20.942;2023-06-22T06:53:09;23.08;;;18.15;;
68923;SDS011;55961;52.156;20.942;2023-06-22T06:55:35;24.23;;;18.58;;
68923;SDS011;55961;52.156;20.942;2023-06-22T06:58:02;26.80;;;16.60;;
68923;SDS011;55961;52.156;20.942;2023-06-22T07:00:33;24.23;;;17.63;;
68923;SDS011;55961;52.156;20.942;2023-06-22T07:02:59;20.13;;;17.08;;
68923;SDS011;55961;52.156;20.942;2023-06-22T07:05:25;20.20;;;15.68;;
68923;SDS011;55961;52.156;20.942;2023-06-22T07:07:50;20.13;;;16.47;;
68923;SDS011;55961;52.156;20.942;2023-06-22T07:10:16;19.15;;;14.38;;
68923;SDS011;55961;52.156;20.942;2023-06-22T07:12:42;19.00;;;14.57;;
68923;SDS011;55961;52.156;20.942;2023-06-22T07:15:09;24.63;;;14.80;;
68923;SDS011;55961;52.156;20.942;2023-06-22T07:17:35;18.00;;;13.27;;
68923;SDS011;55961;52.156;20.942;2023-06-22T07:20:02;19.27;;;13.50;;
68923;SDS011;55961;52.156;20.942;2023-06-22T07:22:33;22.38;;;14.57;;
68923;SDS011;55961;52.156;20.942;2023-06-22T07:24:59;17.05;;;12.48;;
68923;SDS011;55961;52.156;20.942;2023-06-22T07:27:26;17.07;;;12.60;;
68923;SDS011;55961;52.156;20.942;2023-06-22T07:29:52;18.08;;;12.40;;
68923;SDS011;55961;52.156;20.942;2023-06-22T07:32:18;17.65;;;12.90;;
68923;SDS011;55961;52.156;20.942;2023-06-22T07:34:44;14.38;;;11.18;;
68923;SDS011;55961;52.156;20.942;2023-06-22T07:37:10;18.57;;;12.03;;
68923;SDS011;55961;52.156;20.942;2023-06-22T07:39:36;15.80;;;10.65;;
68923;SDS011;55961;52.156;20.942;2023-06-22T07:42:03;15.50;;;10.40;;
68923;SDS011;55961;52.156;20.942;2023-06-22T07:44:29;12.70;;;9.23;;
68923;SDS011;55961;52.156;20.942;2023-06-22T07:46:55;13.63;;;9.10;;
68923;SDS011;55961;52.156;20.942;2023-06-22T07:49:21;11.35;;;9.18;;
68923;SDS011;55961;52.156;20.942;2023-06-22T07:51:47;11.40;;;9.40;;
68923;SDS011;55961;52.156;20.942;2023-06-22T07:54:13;13.37;;;10.07;;
68923;SDS011;55961;52.156;20.942;2023-06-22T07:56:41;12.13;;;9.52;;
68923;SDS011;55961;52.156;20.942;2023-06-22T07:59:07;13.10;;;10.15;;
68923;SDS011;55961;52.156;20.942;2023-06-22T08:01:32;13.45;;;9.40;;
68923;SDS011;55961;52.156;20.942;2023-06-22T08:03:58;15.63;;;8.73;;
68923;SDS011;55961;52.156;20.942;2023-06-22T08:06:24;16.02;;;8.60;;
68923;SDS011;55961;52.156;20.942;2023-06-22T08:08:50;10.27;;;7.75;;
68923;SDS011;55961;52.156;20.942;2023-06-22T08:11:18;14.30;;;8.05;;
68923;SDS011;55961;52.156;20.942;2023-06-22T08:13:44;13.07;;;8.53;;
68923;SDS011;55961;52.156;20.942;2023-06-22T08:16:09;10.40;;;7.75;;
68923;SDS011;55961;52.156;20.942;2023-06-22T08:18:36;11.40;;;7.07;;
68923;SDS011;55961;52.156;20.942;2023-06-22T08:21:02;12.13;;;7.53;;
68923;SDS011;55961;52.156;20.942;2023-06-22T08:23:28;9.67;;;7.50;;
68923;SDS011;55961;52.156;20.942;2023-06-22T08:25:54;11.30;;;7.95;;
68923;SDS011;55961;52.156;20.942;2023-06-22T08:28:20;10.07;;;7.13;;
68923;SDS011;55961;52.156;20.942;2023-06-22T08:30:45;12.50;;;6.87;;
68923;SDS011;55961;52.156;20.942;2023-06-22T08:33:12;11.02;;;8.05;;
68923;SDS011;55961;52.156;20.942;2023-06-22T08:35:38;9.70;;;7.30;;
68923;SDS011;55961;52.156;20.942;2023-06-22T08:38:04;11.10;;;7.57;;
68923;SDS011;55961;52.156;20.942;2023-06-22T08:40:30;11.93;;;7.67;;
68923;SDS011;55961;52.156;20.942;2023-06-22T08:42:56;9.30;;;6.77;;
68923;SDS011;55961;52.156;20.942;2023-06-22T08:45:22;10.88;;;7.18;;
68923;SDS011;55961;52.156;20.942;2023-06-22T08:47:48;10.95;;;6.78;;
68923;SDS011;55961;52.156;20.942;2023-06-22T08:50:13;10.60;;;6.67;;
68923;SDS011;55961;52.156;20.942;2023-06-22T08:52:40;7.35;;;5.97;;
68923;SDS011;55961;52.156;20.942;2023-06-22T08:55:09;8.60;;;6.28;;
68923;SDS011;55961;52.156;20.942;2023-06-22T08:57:35;8.20;;;6.05;;
68923;SDS011;55961;52.156;20.942;2023-06-22T09:00:07;7.43;;;5.00;;
68923;SDS011;55961;52.156;20.942;2023-06-22T09:02:45;9.07;;;6.23;;
68923;SDS011;55961;52.156;20.942;2023-06-22T09:05:12;9.13;;;5.00;;
68923;SDS011;55961;52.156;20.942;2023-06-22T09:07:38;6.95;;;4.53;;
68923;SDS011;55961;52.156;20.942;2023-06-22T09:10:04;8.30;;;4.70;;
68923;SDS011;55961;52.156;20.942;2023-06-22T09:12:31;7.70;;;4.70;;
68923;SDS011;55961;52.156;20.942;2023-06-22T09:14:58;8.20;;;4.40;;
68923;SDS011;55961;52.156;20.942;2023-06-22T09:17:26;6.50;;;4.43;;
68923;SDS011;55961;52.156;20.942;2023-06-22T09:19:52;7.63;;;4.70;;
68923;SDS011;55961;52.156;20.942;2023-06-22T09:22:18;7.65;;;4.63;;
68923;SDS011;55961;52.156;20.942;2023-06-22T09:24:44;6.27;;;4.30;;
68923;SDS011;55961;52.156;20.942;2023-06-22T09:27:10;9.70;;;4.18;;
68923;SDS011;55961;52.156;20.942;2023-06-22T09:29:36;8.07;;;3.88;;
68923;SDS011;55961;52.156;20.942;2023-06-22T09:32:02;7.00;;;3.60;;
68923;SDS011;55961;52.156;20.942;2023-06-22T09:34:28;5.83;;;3.67;;
68923;SDS011;55961;52.156;20.942;2023-06-22T09:36:57;7.13;;;3.70;;
68923;SDS011;55961;52.156;20.942;2023-06-22T09:39:25;7.35;;;3.53;;
68923;SDS011;55961;52.156;20.942;2023-06-22T09:41:51;6.75;;;3.60;;
68923;SDS011;55961;52.156;20.942;2023-06-22T09:44:17;5.47;;;3.70;;
68923;SDS011;55961;52.156;20.942;2023-06-22T09:46:43;10.73;;;3.80;;
68923;SDS011;55961;52.156;20.942;2023-06-22T09:49:09;7.30;;;3.63;;
68923;SDS011;55961;52.156;20.942;2023-06-22T09:51:35;8.65;;;3.53;;
68923;SDS011;55961;52.156;20.942;2023-06-22T09:54:01;5.35;;;3.90;;
68923;SDS011;55961;52.156;20.942;2023-06-22T09:56:27;6.57;;;4.23;;
68923;SDS011;55961;52.156;20.942;2023-06-22T09:58:55;7.88;;;4.13;;
68923;SDS011;55961;52.156;20.942;2023-06-22T10:01:21;9.32;;;4.22;;
68923;SDS011;55961;52.156;20.942;2023-06-22T10:03:47;7.10;;;4.38;;
68923;SDS011;55961;52.156;20.942;2023-06-22T10:06:13;7.47;;;4.10;;
68923;SDS011;55961;52.156;20.942;2023-06-22T10:08:38;7.13;;;4.45;;
68923;SDS011;55961;52.156;20.942;2023-06-22T10:11:06;9.07;;;4.10;;
68923;SDS011;55961;52.156;20.942;2023-06-22T10:13:32;9.18;;;4.68;;
68923;SDS011;55961;52.156;20.942;2023-06-22T10:15:58;7.30;;;4.00;;
68923;SDS011;55961;52.156;20.942;2023-06-22T10:18:24;7.18;;;4.05;;
68923;SDS011;55961;52.156;20.942;2023-06-22T10:20:50;6.88;;;4.07;;
68923;SDS011;55961;52.156;20.942;2023-06-22T10:23:17;6.15;;;4.15;;
68923;SDS011;55961;52.156;20.942;2023-06-22T10:25:43;6.37;;;4.50;;
68923;SDS011;55961;52.156;20.942;2023-06-22T10:28:09;7.05;;;4.72;;
68923;SDS011;55961;52.156;20.942;2023-06-22T10:30:35;7.30;;;4.28;;
68923;SDS011;55961;52.156;20.942;2023-06-22T10:33:01;8.90;;;4.80;;
68923;SDS011;55961;52.156;20.942;2023-06-22T10:35:27;6.23;;;4.37;;
68923;SDS011;55961;52.156;20.942;2023-06-22T10:37:53;8.63;;;4.93;;
68923;SDS011;55961;52.156;20.942;2023-06-22T10:40:20;7.35;;;4.95;;
68923;SDS011;55961;52.156;20.942;2023-06-22T10:42:45;9.37;;;5.00;;
68923;SDS011;55961;52.156;20.942;2023-06-22T10:45:11;8.00;;;5.47;;
68923;SDS011;55961;52.156;20.942;2023-06-22T10:47:37;6.45;;;4.43;;
68923;SDS011;55961;52.156;20.942;2023-06-22T10:50:04;6.65;;;5.03;;
68923;SDS011;55961;52.156;20.942;2023-06-22T10:52:30;8.33;;;4.90;;
68923;SDS011;55961;52.156;20.942;2023-06-22T10:54:56;6.43;;;4.65;;
68923;SDS011;55961;52.156;20.942;2023-06-22T10:57:22;7.30;;;4.85;;
68923;SDS011;55961;52.156;20.942;2023-06-22T10:59:49;6.75;;;4.55;;
68923;SDS011;55961;52.156;20.942;2023-06-22T11:02:14;6.93;;;5.28;;
68923;SDS011;55961;52.156;20.942;2023-06-22T11:04:40;9.63;;;5.10;;
68923;SDS011;55961;52.156;20.942;2023-06-22T11:07:06;9.82;;;5.30;;
68923;SDS011;55961;52.156;20.942;2023-06-22T11:09:32;7.93;;;5.22;;
68923;SDS011;55961;52.156;20.942;2023-06-22T11:11:58;9.23;;;5.50;;
68923;SDS011;55961;52.156;20.942;2023-06-22T11:14:25;8.35;;;4.90;;
68923;SDS011;55961;52.156;20.942;2023-06-22T11:16:51;8.13;;;4.43;;
68923;SDS011;55961;52.156;20.942;2023-06-22T11:19:17;6.68;;;5.13;;
68923;SDS011;55961;52.156;20.942;2023-06-22T11:21:43;11.48;;;5.53;;
68923;SDS011;55961;52.156;20.942;2023-06-22T11:24:10;8.63;;;5.30;;
68923;SDS011;55961;52.156;20.942;2023-06-22T11:26:36;8.35;;;5.15;;
68923;SDS011;55961;52.156;20.942;2023-06-22T11:29:02;7.28;;;4.95;;
68923;SDS011;55961;52.156;20.942;2023-06-22T11:31:31;9.38;;;5.65;;
68923;SDS011;55961;52.156;20.942;2023-06-22T11:33:58;9.63;;;5.10;;
68923;SDS011;55961;52.156;20.942;2023-06-22T11:36:24;7.18;;;4.75;;
68923;SDS011;55961;52.156;20.942;2023-06-22T11:38:51;8.77;;;5.25;;
68923;SDS011;55961;52.156;20.942;2023-06-22T11:41:17;8.48;;;4.90;;
68923;SDS011;55961;52.156;20.942;2023-06-22T11:43:43;10.57;;;5.53;;
68923;SDS011;55961;52.156;20.942;2023-06-22T11:46:09;8.60;;;4.90;;
68923;SDS011;55961;52.156;20.942;2023-06-22T11:48:36;10.23;;;5.30;;
68923;SDS011;55961;52.156;20.942;2023-06-22T11:51:02;8.40;;;5.60;;
68923;SDS011;55961;52.156;20.942;2023-06-22T11:53:28;6.78;;;5.30;;
68923;SDS011;55961;52.156;20.942;2023-06-22T11:55:55;8.77;;;4.87;;
68923;SDS011;55961;52.156;20.942;2023-06-22T11:58:22;6.90;;;5.07;;
68923;SDS011;55961;52.156;20.942;2023-06-22T12:00:48;7.10;;;5.00;;
68923;SDS011;55961;52.156;20.942;2023-06-22T12:03:15;6.88;;;4.82;;
68923;SDS011;55961;52.156;20.942;2023-06-22T12:05:41;7.72;;;4.95;;
68923;SDS011;55961;52.156;20.942;2023-06-22T12:08:08;6.67;;;4.70;;
68923;SDS011;55961;52.156;20.942;2023-06-22T12:10:34;6.65;;;4.57;;
68923;SDS011;55961;52.156;20.942;2023-06-22T12:13:00;5.85;;;4.75;;
68923;SDS011;55961;52.156;20.942;2023-06-22T12:15:26;7.45;;;4.95;;
68923;SDS011;55961;52.156;20.942;2023-06-22T12:17:54;10.03;;;5.10;;
68923;SDS011;55961;52.156;20.942;2023-06-22T12:20:20;10.68;;;5.45;;
68923;SDS011;55961;52.156;20.942;2023-06-22T12:22:46;7.53;;;5.10;;
68923;SDS011;55961;52.156;20.942;2023-06-22T12:25:12;7.93;;;5.30;;
68923;SDS011;55961;52.156;20.942;2023-06-22T12:27:39;6.77;;;5.20;;
68923;SDS011;55961;52.156;20.942;2023-06-22T12:30:04;6.05;;;4.80;;
68923;SDS011;55961;52.156;20.942;2023-06-22T12:32:31;8.48;;;4.75;;
68923;SDS011;55961;52.156;20.942;2023-06-22T12:34:57;7.90;;;4.63;;
68923;SDS011;55961;52.156;20.942;2023-06-22T12:37:23;7.63;;;4.53;;
68923;SDS011;55961;52.156;20.942;2023-06-22T12:39:49;7.82;;;5.05;;
68923;SDS011;55961;52.156;20.942;2023-06-22T12:42:15;8.97;;;4.60;;
68923;SDS011;55961;52.156;20.942;2023-06-22T12:44:41;9.57;;;4.85;;
68923;SDS011;55961;52.156;20.942;2023-06-22T12:47:08;6.97;;;5.07;;
68923;SDS011;55961;52.156;20.942;2023-06-22T12:49:35;7.07;;;4.30;;
68923;SDS011;55961;52.156;20.942;2023-06-22T12:52:01;8.50;;;4.90;;
68923;SDS011;55961;52.156;20.942;2023-06-22T12:54:28;7.57;;;4.93;;
68923;SDS011;55961;52.156;20.942;2023-06-22T12:56:55;9.15;;;5.07;;
68923;SDS011;55961;52.156;20.942;2023-06-22T12:59:21;6.78;;;5.13;;
68923;SDS011;55961;52.156;20.942;2023-06-22T13:01:47;7.40;;;5.05;;
68923;SDS011;55961;52.156;20.942;2023-06-22T13:04:13;6.37;;;4.93;;
68923;SDS011;55961;52.156;20.942;2023-06-22T13:06:41;6.43;;;4.50;;
68923;SDS011;55961;52.156;20.942;2023-06-22T13:09:07;6.65;;;4.22;;
68923;SDS011;55961;52.156;20.942;2023-06-22T13:11:34;8.57;;;4.80;;
68923;SDS011;55961;52.156;20.942;2023-06-22T13:14:00;7.07;;;5.20;;
68923;SDS011;55961;52.156;20.942;2023-06-22T13:16:26;9.18;;;4.47;;
68923;SDS011;55961;52.156;20.942;2023-06-22T13:18:52;7.65;;;4.88;;
68923;SDS011;55961;52.156;20.942;2023-06-22T13:21:18;7.72;;;4.78;;
68923;SDS011;55961;52.156;20.942;2023-06-22T13:23:44;5.77;;;4.00;;
68923;SDS011;55961;52.156;20.942;2023-06-22T13:26:10;6.55;;;4.30;;
68923;SDS011;55961;52.156;20.942;2023-06-22T13:28:35;8.45;;;4.80;;
68923;SDS011;55961;52.156;20.942;2023-06-22T13:31:02;6.30;;;4.43;;
68923;SDS011;55961;52.156;20.942;2023-06-22T13:33:27;6.97;;;4.28;;
68923;SDS011;55961;52.156;20.942;2023-06-22T13:35:53;7.93;;;4.22;;
68923;SDS011;55961;52.156;20.942;2023-06-22T13:38:19;5.50;;;4.10;;
68923;SDS011;55961;52.156;20.942;2023-06-22T13:40:45;6.30;;;4.00;;
68923;SDS011;55961;52.156;20.942;2023-06-22T13:43:12;5.60;;;3.50;;
68923;SDS011;55961;52.156;20.942;2023-06-22T13:45:38;6.38;;;4.00;;
68923;SDS011;55961;52.156;20.942;2023-06-22T13:48:05;6.38;;;3.88;;
68923;SDS011;55961;52.156;20.942;2023-06-22T13:50:31;7.00;;;4.18;;
68923;SDS011;55961;52.156;20.942;2023-06-22T13:52:56;5.97;;;4.27;;
68923;SDS011;55961;52.156;20.942;2023-06-22T13:55:23;7.28;;;4.32;;
68923;SDS011;55961;52.156;20.942;2023-06-22T13:57:49;7.70;;;4.10;;
68923;SDS011;55961;52.156;20.942;2023-06-22T14:00:16;6.87;;;5.20;;
68923;SDS011;55961;52.156;20.942;2023-06-22T14:02:42;8.55;;;4.50;;
68923;SDS011;55961;52.156;20.942;2023-06-22T14:05:09;6.95;;;4.25;;
68923;SDS011;55961;52.156;20.942;2023-06-22T14:07:36;7.60;;;4.90;;
68923;SDS011;55961;52.156;20.942;2023-06-22T14:10:03;8.10;;;4.30;;
68923;SDS011;55961;52.156;20.942;2023-06-22T14:12:29;8.23;;;5.13;;
68923;SDS011;55961;52.156;20.942;2023-06-22T14:14:55;6.28;;;4.50;;
68923;SDS011;55961;52.156;20.942;2023-06-22T14:17:22;6.97;;;4.30;;